sensor_id;sensor_type;location;lat;lon;timestamp;P1;durP1;ratioP1;P2;durP2;ratioP2
5807;SDS011;2930;42.678;23.312;2023-03-14T00:01:53;2.33;;;1.87;;
5807;SDS011;2930;42.678;23.312;2023-03-14T00:04:19;3.57;;;2.03;;
5807;SDS011;2930;42.678;23.312;2023-03-14T00:06:44;3.23;;;2.67;;
5807;SDS011;2930;42.678;23.312;2023-03-14T00:09:11;2.20;;;2.10;;
5807;SDS011;2930;42.678;23.312;2023-03-14T00:11:38;2.60;;;2.40;;
5807;SDS011;2930;42.678;23.312;2023-03-14T00:14:04;3.10;;;1.90;;
5807;SDS011;2930;42.678;23.312;2023-03-14T00:16:29;3.57;;;1.57;;
5807;SDS011;2930;42.678;23.312;2023-03-14T00:18:55;1.60;;;1.50;;
5807;SDS011;2930;42.678;23.312;2023-03-14T00:21:22;1.43;;;1.37;;
5807;SDS011;2930;42.678;23.312;2023-03-14T00:23:48;1.13;;;1.13;;
5807;SDS011;2930;42.678;23.312;2023-03-14T00:26:15;2.87;;;1.37;;
5807;SDS011;2930;42.678;23.312;2023-03-14T00:28:42;1.53;;;1.53;;
5807;SDS011;2930;42.678;23.312;2023-03-14T00:31:09;1.17;;;1.17;;
5807;SDS011;2930;42.678;23.312;2023-03-14T00:33:36;3.10;;;1.30;;
5807;SDS011;2930;42.678;23.312;2023-03-14T00:36:03;1.43;;;1.37;;
5807;SDS011;2930;42.678;23.312;2023-03-14T00:38:33;1.57;;;1.27;;
5807;SDS011;2930;42.678;23.312;2023-03-14T00:41:03;1.83;;;1.43;;
5807;SDS011;2930;42.678;23.312;2023-03-14T00:43:29;2.17;;;1.13;;
5807;SDS011;2930;42.678;23.312;2023-03-14T00:45:55;1.83;;;1.30;;
5807;SDS011;2930;42.678;23.312;2023-03-14T00:48:22;3.23;;;1.43;;
5807;SDS011;2930;42.678;23.312;2023-03-14T00:50:47;1.70;;;1.60;;
5807;SDS011;2930;42.678;23.312;2023-03-14T00:53:13;1.97;;;1.20;;
5807;SDS011;2930;42.678;23.312;2023-03-14T00:55:39;1.60;;;1.50;;
5807;SDS011;2930;42.678;23.312;2023-03-14T00:58:07;2.27;;;1.60;;
5807;SDS011;2930;42.678;23.312;2023-03-14T01:00:33;1.53;;;1.20;;
5807;SDS011;2930;42.678;23.312;2023-03-14T01:03:00;0.90;;;0.90;;
5807;SDS011;2930;42.678;23.312;2023-03-14T01:05:26;2.47;;;2.20;;
5807;SDS011;2930;42.678;23.312;2023-03-14T01:07:52;3.33;;;1.77;;
5807;SDS011;2930;42.678;23.312;2023-03-14T01:10:18;2.17;;;1.97;;
5807;SDS011;2930;42.678;23.312;2023-03-14T01:12:44;5.17;;;2.80;;
5807;SDS011;2930;42.678;23.312;2023-03-14T01:15:09;3.13;;;2.43;;
5807;SDS011;2930;42.678;23.312;2023-03-14T01:17:35;4.73;;;2.97;;
5807;SDS011;2930;42.678;23.312;2023-03-14T01:20:03;1.83;;;1.70;;
5807;SDS011;2930;42.678;23.312;2023-03-14T01:22:29;2.47;;;2.27;;
5807;SDS011;2930;42.678;23.312;2023-03-14T01:24:55;3.90;;;2.43;;
5807;SDS011;2930;42.678;23.312;2023-03-14T01:27:21;3.53;;;2.33;;
5807;SDS011;2930;42.678;23.312;2023-03-14T01:29:46;4.03;;;2.20;;
5807;SDS011;2930;42.678;23.312;2023-03-14T01:32:13;1.90;;;1.80;;
5807;SDS011;2930;42.678;23.312;2023-03-14T01:34:39;3.60;;;2.70;;
5807;SDS011;2930;42.678;23.312;2023-03-14T01:37:04;2.97;;;2.07;;
5807;SDS011;2930;42.678;23.312;2023-03-14T01:39:32;2.60;;;1.90;;
5807;SDS011;2930;42.678;23.312;2023-03-14T01:41:58;2.10;;;1.97;;
5807;SDS011;2930;42.678;23.312;2023-03-14T01:44:24;3.23;;;1.80;;
5807;SDS011;2930;42.678;23.312;2023-03-14T01:46:50;2.37;;;2.13;;
5807;SDS011;2930;42.678;23.312;2023-03-14T01:49:20;3.13;;;2.30;;
5807;SDS011;2930;42.678;23.312;2023-03-14T01:52:05;3.63;;;2.13;;
5807;SDS011;2930;42.678;23.312;2023-03-14T01:54:45;2.43;;;2.23;;
5807;SDS011;2930;42.678;23.312;2023-03-14T01:57:15;4.10;;;2.33;;
5807;SDS011;2930;42.678;23.312;2023-03-14T01:59:43;6.80;;;2.33;;
5807;SDS011;2930;42.678;23.312;2023-03-14T02:02:12;4.13;;;2.53;;
5807;SDS011;2930;42.678;23.312;2023-03-14T02:04:40;4.03;;;2.40;;
5807;SDS011;2930;42.678;23.312;2023-03-14T02:07:12;2.83;;;2.27;;
5807;SDS011;2930;42.678;23.312;2023-03-14T02:09:52;2.93;;;1.90;;
5807;SDS011;2930;42.678;23.312;2023-03-14T02:12:20;4.23;;;2.30;;
5807;SDS011;2930;42.678;23.312;2023-03-14T02:14:47;3.17;;;2.03;;
5807;SDS011;2930;42.678;23.312;2023-03-14T02:17:13;3.17;;;2.17;;
5807;SDS011;2930;42.678;23.312;2023-03-14T02:22:49;2.03;;;1.83;;
5807;SDS011;2930;42.678;23.312;2023-03-14T02:28:02;2.87;;;2.00;;
5807;SDS011;2930;42.678;23.312;2023-03-14T02:30:29;2.83;;;2.33;;
5807;SDS011;2930;42.678;23.312;2023-03-14T02:33:15;1.93;;;1.83;;
5807;SDS011;2930;42.678;23.312;2023-03-14T02:38:28;2.27;;;2.03;;
5807;SDS011;2930;42.678;23.312;2023-03-14T02:40:58;2.77;;;2.13;;
5807;SDS011;2930;42.678;23.312;2023-03-14T02:43:24;1.70;;;1.60;;
5807;SDS011;2930;42.678;23.312;2023-03-14T02:45:50;4.20;;;2.07;;
5807;SDS011;2930;42.678;23.312;2023-03-14T02:48:26;4.07;;;1.50;;
5807;SDS011;2930;42.678;23.312;2023-03-14T02:50:59;1.30;;;1.20;;
5807;SDS011;2930;42.678;23.312;2023-03-14T02:53:27;2.97;;;2.00;;
5807;SDS011;2930;42.678;23.312;2023-03-14T02:55:56;2.00;;;1.77;;
5807;SDS011;2930;42.678;23.312;2023-03-14T02:58:22;2.93;;;2.53;;
5807;SDS011;2930;42.678;23.312;2023-03-14T03:00:48;1.80;;;1.70;;
5807;SDS011;2930;42.678;23.312;2023-03-14T03:03:13;1.00;;;1.00;;
5807;SDS011;2930;42.678;23.312;2023-03-14T03:05:39;1.90;;;1.80;;
5807;SDS011;2930;42.678;23.312;2023-03-14T03:08:05;1.87;;;1.77;;
5807;SDS011;2930;42.678;23.312;2023-03-14T03:10:31;1.73;;;1.63;;
5807;SDS011;2930;42.678;23.312;2023-03-14T03:12:57;6.97;;;2.40;;
5807;SDS011;2930;42.678;23.312;2023-03-14T03:15:23;1.67;;;1.57;;
5807;SDS011;2930;42.678;23.312;2023-03-14T03:17:50;2.30;;;2.10;;
5807;SDS011;2930;42.678;23.312;2023-03-14T03:20:15;2.30;;;2.10;;
5807;SDS011;2930;42.678;23.312;2023-03-14T03:22:41;2.17;;;1.93;;
5807;SDS011;2930;42.678;23.312;2023-03-14T03:25:07;4.40;;;1.80;;
5807;SDS011;2930;42.678;23.312;2023-03-14T03:27:34;2.07;;;1.97;;
5807;SDS011;2930;42.678;23.312;2023-03-14T03:30:00;1.77;;;1.67;;
5807;SDS011;2930;42.678;23.312;2023-03-14T03:32:26;1.63;;;1.57;;
5807;SDS011;2930;42.678;23.312;2023-03-14T03:34:52;2.27;;;1.87;;
5807;SDS011;2930;42.678;23.312;2023-03-14T03:37:18;1.47;;;1.47;;
5807;SDS011;2930;42.678;23.312;2023-03-14T03:39:43;1.63;;;1.40;;
5807;SDS011;2930;42.678;23.312;2023-03-14T03:42:09;6.50;;;1.93;;
5807;SDS011;2930;42.678;23.312;2023-03-14T03:44:35;2.53;;;1.90;;
5807;SDS011;2930;42.678;23.312;2023-03-14T03:47:01;2.73;;;1.83;;
5807;SDS011;2930;42.678;23.312;2023-03-14T03:49:31;2.00;;;1.77;;
5807;SDS011;2930;42.678;23.312;2023-03-14T03:51:57;1.83;;;1.73;;
5807;SDS011;2930;42.678;23.312;2023-03-14T03:54:23;1.80;;;1.70;;
5807;SDS011;2930;42.678;23.312;2023-03-14T03:56:49;1.80;;;1.70;;
5807;SDS011;2930;42.678;23.312;2023-03-14T03:59:16;5.30;;;2.47;;
5807;SDS011;2930;42.678;23.312;2023-03-14T04:01:42;2.90;;;2.10;;
5807;SDS011;2930;42.678;23.312;2023-03-14T04:04:08;2.67;;;2.47;;
5807;SDS011;2930;42.678;23.312;2023-03-14T04:06:33;2.57;;;2.37;;
5807;SDS011;2930;42.678;23.312;2023-03-14T04:08:59;2.80;;;2.23;;
5807;SDS011;2930;42.678;23.312;2023-03-14T04:11:25;3.57;;;1.57;;
5807;SDS011;2930;42.678;23.312;2023-03-14T04:13:51;2.27;;;2.03;;
5807;SDS011;2930;42.678;23.312;2023-03-14T04:16:18;2.13;;;2.03;;
5807;SDS011;2930;42.678;23.312;2023-03-14T04:18:46;2.27;;;2.17;;
5807;SDS011;2930;42.678;23.312;2023-03-14T04:21:11;2.27;;;2.17;;
5807;SDS011;2930;42.678;23.312;2023-03-14T04:23:37;2.13;;;2.03;;
5807;SDS011;2930;42.678;23.312;2023-03-14T04:26:03;2.03;;;1.83;;
5807;SDS011;2930;42.678;23.312;2023-03-14T04:28:29;1.40;;;1.13;;
5807;SDS011;2930;42.678;23.312;2023-03-14T04:30:54;2.97;;;2.00;;
5807;SDS011;2930;42.678;23.312;2023-03-14T04:33:20;2.87;;;2.20;;
5807;SDS011;2930;42.678;23.312;2023-03-14T04:35:46;5.50;;;2.20;;
5807;SDS011;2930;42.678;23.312;2023-03-14T04:38:12;2.20;;;2.10;;
5807;SDS011;2930;42.678;23.312;2023-03-14T04:40:39;2.17;;;1.73;;
5807;SDS011;2930;42.678;23.312;2023-03-14T04:43:05;1.57;;;1.47;;
5807;SDS011;2930;42.678;23.312;2023-03-14T04:45:32;2.03;;;1.83;;
5807;SDS011;2930;42.678;23.312;2023-03-14T04:47:57;4.90;;;1.90;;
5807;SDS011;2930;42.678;23.312;2023-03-14T04:50:23;1.83;;;1.73;;
5807;SDS011;2930;42.678;23.312;2023-03-14T04:52:48;2.20;;;1.50;;
5807;SDS011;2930;42.678;23.312;2023-03-14T04:55:14;1.37;;;1.00;;
5807;SDS011;2930;42.678;23.312;2023-03-14T04:57:40;1.67;;;1.60;;
5807;SDS011;2930;42.678;23.312;2023-03-14T05:00:06;1.07;;;1.07;;
5807;SDS011;2930;42.678;23.312;2023-03-14T05:02:32;1.53;;;1.43;;
5807;SDS011;2930;42.678;23.312;2023-03-14T05:04:59;1.47;;;1.37;;
5807;SDS011;2930;42.678;23.312;2023-03-14T05:07:24;3.17;;;1.40;;
5807;SDS011;2930;42.678;23.312;2023-03-14T05:09:50;1.43;;;1.13;;
5807;SDS011;2930;42.678;23.312;2023-03-14T05:12:18;2.07;;;1.97;;
5807;SDS011;2930;42.678;23.312;2023-03-14T05:14:44;2.30;;;1.80;;
5807;SDS011;2930;42.678;23.312;2023-03-14T05:17:10;2.40;;;1.83;;
5807;SDS011;2930;42.678;23.312;2023-03-14T05:19:36;4.70;;;1.37;;
5807;SDS011;2930;42.678;23.312;2023-03-14T05:22:02;3.90;;;1.90;;
5807;SDS011;2930;42.678;23.312;2023-03-14T05:24:28;2.80;;;1.33;;
5807;SDS011;2930;42.678;23.312;2023-03-14T05:26:54;1.93;;;1.83;;
5807;SDS011;2930;42.678;23.312;2023-03-14T05:29:19;1.77;;;1.67;;
5807;SDS011;2930;42.678;23.312;2023-03-14T05:31:45;2.97;;;1.13;;
5807;SDS011;2930;42.678;23.312;2023-03-14T05:34:10;2.57;;;1.97;;
5807;SDS011;2930;42.678;23.312;2023-03-14T05:36:36;1.37;;;1.13;;
5807;SDS011;2930;42.678;23.312;2023-03-14T05:39:03;3.37;;;1.83;;
5807;SDS011;2930;42.678;23.312;2023-03-14T05:41:28;1.10;;;1.10;;
5807;SDS011;2930;42.678;23.312;2023-03-14T05:43:54;2.83;;;1.83;;
5807;SDS011;2930;42.678;23.312;2023-03-14T05:46:20;2.27;;;1.60;;
5807;SDS011;2930;42.678;23.312;2023-03-14T05:48:46;4.10;;;2.10;;
5807;SDS011;2930;42.678;23.312;2023-03-14T05:51:11;4.83;;;1.90;;
5807;SDS011;2930;42.678;23.312;2023-03-14T05:53:37;2.37;;;2.10;;
5807;SDS011;2930;42.678;23.312;2023-03-14T05:56:03;3.07;;;2.17;;
5807;SDS011;2930;42.678;23.312;2023-03-14T05:58:28;1.67;;;1.57;;
5807;SDS011;2930;42.678;23.312;2023-03-14T06:00:54;5.53;;;2.80;;
5807;SDS011;2930;42.678;23.312;2023-03-14T06:03:20;1.93;;;1.83;;
5807;SDS011;2930;42.678;23.312;2023-03-14T06:05:45;2.13;;;1.87;;
5807;SDS011;2930;42.678;23.312;2023-03-14T06:08:11;2.30;;;2.20;;
5807;SDS011;2930;42.678;23.312;2023-03-14T06:10:37;2.63;;;1.80;;
5807;SDS011;2930;42.678;23.312;2023-03-14T06:13:02;2.83;;;2.63;;
5807;SDS011;2930;42.678;23.312;2023-03-14T06:15:28;4.33;;;2.00;;
5807;SDS011;2930;42.678;23.312;2023-03-14T06:17:54;5.77;;;1.67;;
5807;SDS011;2930;42.678;23.312;2023-03-14T06:20:21;4.90;;;2.63;;
5807;SDS011;2930;42.678;23.312;2023-03-14T06:22:46;2.40;;;1.97;;
5807;SDS011;2930;42.678;23.312;2023-03-14T06:25:12;2.07;;;1.97;;
5807;SDS011;2930;42.678;23.312;2023-03-14T06:27:38;3.20;;;2.23;;
5807;SDS011;2930;42.678;23.312;2023-03-14T06:30:04;4.13;;;2.63;;
5807;SDS011;2930;42.678;23.312;2023-03-14T06:32:30;2.97;;;2.30;;
5807;SDS011;2930;42.678;23.312;2023-03-14T06:34:56;2.73;;;2.53;;
5807;SDS011;2930;42.678;23.312;2023-03-14T06:37:25;3.00;;;2.73;;
5807;SDS011;2930;42.678;23.312;2023-03-14T06:39:52;2.37;;;2.17;;
5807;SDS011;2930;42.678;23.312;2023-03-14T06:42:18;2.37;;;2.17;;
5807;SDS011;2930;42.678;23.312;2023-03-14T06:44:44;3.63;;;2.60;;
5807;SDS011;2930;42.678;23.312;2023-03-14T06:47:09;2.80;;;2.60;;
5807;SDS011;2930;42.678;23.312;2023-03-14T06:49:35;2.57;;;2.30;;
5807;SDS011;2930;42.678;23.312;2023-03-14T06:52:01;2.67;;;2.27;;
5807;SDS011;2930;42.678;23.312;2023-03-14T06:54:26;4.27;;;2.60;;
5807;SDS011;2930;42.678;23.312;2023-03-14T06:56:52;3.87;;;2.90;;
5807;SDS011;2930;42.678;23.312;2023-03-14T06:59:18;6.17;;;2.97;;
5807;SDS011;2930;42.678;23.312;2023-03-14T07:01:43;3.00;;;2.23;;
5807;SDS011;2930;42.678;23.312;2023-03-14T07:04:09;2.87;;;2.60;;
5807;SDS011;2930;42.678;23.312;2023-03-14T07:06:35;2.73;;;2.43;;
5807;SDS011;2930;42.678;23.312;2023-03-14T07:09:01;1.80;;;1.67;;
5807;SDS011;2930;42.678;23.312;2023-03-14T07:11:26;5.07;;;2.23;;
5807;SDS011;2930;42.678;23.312;2023-03-14T07:13:52;2.43;;;2.17;;
5807;SDS011;2930;42.678;23.312;2023-03-14T07:16:18;3.80;;;2.30;;
5807;SDS011;2930;42.678;23.312;2023-03-14T07:18:44;2.27;;;1.97;;
5807;SDS011;2930;42.678;23.312;2023-03-14T07:21:10;3.50;;;2.00;;
5807;SDS011;2930;42.678;23.312;2023-03-14T07:23:37;2.50;;;2.10;;
5807;SDS011;2930;42.678;23.312;2023-03-14T07:26:03;2.63;;;2.43;;
5807;SDS011;2930;42.678;23.312;2023-03-14T07:28:29;2.80;;;2.53;;
5807;SDS011;2930;42.678;23.312;2023-03-14T07:30:55;3.83;;;2.87;;
5807;SDS011;2930;42.678;23.312;2023-03-14T07:33:21;3.67;;;2.77;;
5807;SDS011;2930;42.678;23.312;2023-03-14T07:35:47;3.30;;;3.00;;
5807;SDS011;2930;42.678;23.312;2023-03-14T07:38:13;6.77;;;3.87;;
5807;SDS011;2930;42.678;23.312;2023-03-14T07:40:39;6.23;;;3.20;;
5807;SDS011;2930;42.678;23.312;2023-03-14T07:43:05;7.27;;;3.70;;
5807;SDS011;2930;42.678;23.312;2023-03-14T07:45:31;3.73;;;3.23;;
5807;SDS011;2930;42.678;23.312;2023-03-14T07:47:57;4.57;;;4.17;;
5807;SDS011;2930;42.678;23.312;2023-03-14T07:50:26;3.33;;;3.10;;
5807;SDS011;2930;42.678;23.312;2023-03-14T07:52:52;3.63;;;3.30;;
5807;SDS011;2930;42.678;23.312;2023-03-14T07:55:18;4.57;;;4.07;;
5807;SDS011;2930;42.678;23.312;2023-03-14T07:57:44;6.87;;;4.27;;
5807;SDS011;2930;42.678;23.312;2023-03-14T08:00:10;5.10;;;4.20;;
5807;SDS011;2930;42.678;23.312;2023-03-14T08:02:36;6.30;;;3.40;;
5807;SDS011;2930;42.678;23.312;2023-03-14T08:05:02;3.87;;;3.57;;
5807;SDS011;2930;42.678;23.312;2023-03-14T08:07:28;3.53;;;3.23;;
5807;SDS011;2930;42.678;23.312;2023-03-14T08:09:54;4.30;;;3.67;;
5807;SDS011;2930;42.678;23.312;2023-03-14T08:12:20;3.60;;;3.30;;
5807;SDS011;2930;42.678;23.312;2023-03-14T08:14:45;8.37;;;5.03;;
5807;SDS011;2930;42.678;23.312;2023-03-14T08:17:11;4.37;;;4.00;;
5807;SDS011;2930;42.678;23.312;2023-03-14T08:19:37;4.57;;;3.88;;
5807;SDS011;2930;42.678;23.312;2023-03-14T08:22:03;7.45;;;4.07;;
5807;SDS011;2930;42.678;23.312;2023-03-14T08:24:29;5.13;;;4.65;;
5807;SDS011;2930;42.678;23.312;2023-03-14T08:26:55;5.10;;;4.47;;
5807;SDS011;2930;42.678;23.312;2023-03-14T08:29:20;9.57;;;4.82;;
5807;SDS011;2930;42.678;23.312;2023-03-14T08:31:46;8.05;;;5.00;;
5807;SDS011;2930;42.678;23.312;2023-03-14T08:34:13;4.97;;;4.38;;
5807;SDS011;2930;42.678;23.312;2023-03-14T08:36:40;8.15;;;5.00;;
5807;SDS011;2930;42.678;23.312;2023-03-14T08:39:05;5.03;;;4.57;;
5807;SDS011;2930;42.678;23.312;2023-03-14T08:41:32;6.15;;;4.75;;
5807;SDS011;2930;42.678;23.312;2023-03-14T08:43:58;8.95;;;4.97;;
5807;SDS011;2930;42.678;23.312;2023-03-14T08:46:24;4.90;;;4.15;;
5807;SDS011;2930;42.678;23.312;2023-03-14T08:48:49;5.47;;;4.70;;
5807;SDS011;2930;42.678;23.312;2023-03-14T08:51:15;7.57;;;4.15;;
5807;SDS011;2930;42.678;23.312;2023-03-14T08:53:42;9.20;;;4.55;;
5807;SDS011;2930;42.678;23.312;2023-03-14T08:56:08;4.85;;;4.45;;
5807;SDS011;2930;42.678;23.312;2023-03-14T08:58:35;5.00;;;4.50;;
5807;SDS011;2930;42.678;23.312;2023-03-14T09:01:03;4.93;;;4.47;;
5807;SDS011;2930;42.678;23.312;2023-03-14T09:03:32;4.85;;;4.45;;
5807;SDS011;2930;42.678;23.312;2023-03-14T09:06:02;4.43;;;4.03;;
5807;SDS011;2930;42.678;23.312;2023-03-14T09:08:29;4.82;;;4.53;;
5807;SDS011;2930;42.678;23.312;2023-03-14T09:10:54;7.20;;;4.90;;
5807;SDS011;2930;42.678;23.312;2023-03-14T09:13:21;5.68;;;4.47;;
5807;SDS011;2930;42.678;23.312;2023-03-14T09:15:50;4.53;;;4.13;;
5807;SDS011;2930;42.678;23.312;2023-03-14T09:18:16;5.00;;;4.53;;
5807;SDS011;2930;42.678;23.312;2023-03-14T09:20:42;4.43;;;4.00;;
5807;SDS011;2930;42.678;23.312;2023-03-14T09:23:08;4.40;;;4.20;;
5807;SDS011;2930;42.678;23.312;2023-03-14T09:25:33;4.57;;;4.03;;
5807;SDS011;2930;42.678;23.312;2023-03-14T09:27:59;4.50;;;4.00;;
5807;SDS011;2930;42.678;23.312;2023-03-14T09:30:25;4.20;;;3.83;;
5807;SDS011;2930;42.678;23.312;2023-03-14T09:32:50;4.05;;;3.75;;
5807;SDS011;2930;42.678;23.312;2023-03-14T09:35:16;4.15;;;3.25;;
5807;SDS011;2930;42.678;23.312;2023-03-14T09:37:41;3.78;;;3.55;;
5807;SDS011;2930;42.678;23.312;2023-03-14T09:40:11;3.35;;;3.15;;
5807;SDS011;2930;42.678;23.312;2023-03-14T09:42:38;3.97;;;3.78;;
5807;SDS011;2930;42.678;23.312;2023-03-14T09:45:06;5.32;;;3.38;;
5807;SDS011;2930;42.678;23.312;2023-03-14T09:47:42;5.45;;;4.10;;
5807;SDS011;2930;42.678;23.312;2023-03-14T09:50:15;3.35;;;3.15;;
5807;SDS011;2930;42.678;23.312;2023-03-14T09:52:42;3.55;;;3.35;;
5807;SDS011;2930;42.678;23.312;2023-03-14T09:55:25;2.75;;;2.53;;
5807;SDS011;2930;42.678;23.312;2023-03-14T09:57:54;3.03;;;2.75;;
5807;SDS011;2930;42.678;23.312;2023-03-14T10:00:27;2.75;;;2.65;;
5807;SDS011;2930;42.678;23.312;2023-03-14T10:05:46;4.78;;;2.83;;
5807;SDS011;2930;42.678;23.312;2023-03-14T10:08:12;5.88;;;2.33;;
5807;SDS011;2930;42.678;23.312;2023-03-14T10:10:38;2.83;;;2.63;;
5807;SDS011;2930;42.678;23.312;2023-03-14T10:13:16;2.97;;;2.45;;
5807;SDS011;2930;42.678;23.312;2023-03-14T10:15:42;2.78;;;2.67;;
5807;SDS011;2930;42.678;23.312;2023-03-14T10:18:13;2.88;;;2.67;;
5807;SDS011;2930;42.678;23.312;2023-03-14T10:20:43;2.25;;;2.22;;
5807;SDS011;2930;42.678;23.312;2023-03-14T10:25:38;3.25;;;2.92;;
5807;SDS011;2930;42.678;23.312;2023-03-14T10:28:11;3.70;;;2.63;;
5807;SDS011;2930;42.678;23.312;2023-03-14T10:30:52;5.38;;;2.80;;
5807;SDS011;2930;42.678;23.312;2023-03-14T10:33:22;2.85;;;2.65;;
5807;SDS011;2930;42.678;23.312;2023-03-14T10:35:54;2.65;;;2.55;;
5807;SDS011;2930;42.678;23.312;2023-03-14T10:38:29;2.83;;;2.72;;
5807;SDS011;2930;42.678;23.312;2023-03-14T10:40:56;3.58;;;2.70;;
5807;SDS011;2930;42.678;23.312;2023-03-14T10:43:33;3.05;;;2.92;;
5807;SDS011;2930;42.678;23.312;2023-03-14T10:46:08;3.47;;;3.17;;
5807;SDS011;2930;42.678;23.312;2023-03-14T10:48:42;5.00;;;3.40;;
5807;SDS011;2930;42.678;23.312;2023-03-14T10:53:44;2.65;;;2.53;;
5807;SDS011;2930;42.678;23.312;2023-03-14T10:59:01;3.45;;;3.15;;
5807;SDS011;2930;42.678;23.312;2023-03-14T11:11:54;2.80;;;2.60;;
5807;SDS011;2930;42.678;23.312;2023-03-14T11:14:29;2.13;;;2.08;;
5807;SDS011;2930;42.678;23.312;2023-03-14T11:17:20;2.15;;;1.75;;
5807;SDS011;2930;42.678;23.312;2023-03-14T11:20:10;3.13;;;1.70;;
5807;SDS011;2930;42.678;23.312;2023-03-14T11:22:49;1.42;;;1.42;;
5807;SDS011;2930;42.678;23.312;2023-03-14T11:33:15;1.50;;;1.20;;
5807;SDS011;2930;42.678;23.312;2023-03-14T11:38:30;1.15;;;1.05;;
5807;SDS011;2930;42.678;23.312;2023-03-14T11:41:02;2.00;;;1.35;;
5807;SDS011;2930;42.678;23.312;2023-03-14T11:46:10;1.08;;;1.08;;
5807;SDS011;2930;42.678;23.312;2023-03-14T11:51:38;1.35;;;1.30;;
5807;SDS011;2930;42.678;23.312;2023-03-14T11:56:47;1.20;;;1.20;;
5807;SDS011;2930;42.678;23.312;2023-03-14T11:59:19;1.25;;;1.25;;
5807;SDS011;2930;42.678;23.312;2023-03-14T12:01:57;1.02;;;1.00;;
5807;SDS011;2930;42.678;23.312;2023-03-14T12:04:32;1.38;;;1.23;;
5807;SDS011;2930;42.678;23.312;2023-03-14T12:10:04;1.50;;;1.50;;
5807;SDS011;2930;42.678;23.312;2023-03-14T12:12:30;1.30;;;1.30;;
5807;SDS011;2930;42.678;23.312;2023-03-14T12:14:58;1.00;;;1.00;;
5807;SDS011;2930;42.678;23.312;2023-03-14T12:17:38;1.23;;;1.15;;
5807;SDS011;2930;42.678;23.312;2023-03-14T12:20:22;2.10;;;1.02;;
5807;SDS011;2930;42.678;23.312;2023-03-14T12:23:04;1.02;;;1.02;;
5807;SDS011;2930;42.678;23.312;2023-03-14T12:25:35;1.15;;;1.15;;
5807;SDS011;2930;42.678;23.312;2023-03-14T12:28:20;2.83;;;1.10;;
5807;SDS011;2930;42.678;23.312;2023-03-14T12:30:47;1.17;;;1.02;;
5807;SDS011;2930;42.678;23.312;2023-03-14T12:35:45;0.75;;;0.75;;
5807;SDS011;2930;42.678;23.312;2023-03-14T12:40:59;0.98;;;0.98;;
5807;SDS011;2930;42.678;23.312;2023-03-14T12:43:33;0.73;;;0.73;;
5807;SDS011;2930;42.678;23.312;2023-03-14T12:46:14;0.98;;;0.98;;
5807;SDS011;2930;42.678;23.312;2023-03-14T12:49:16;0.63;;;0.63;;
5807;SDS011;2930;42.678;23.312;2023-03-14T12:51:36;0.80;;;0.68;;
5807;SDS011;2930;42.678;23.312;2023-03-14T13:04:50;1.27;;;0.70;;
5807;SDS011;2930;42.678;23.312;2023-03-14T13:10:25;0.50;;;0.50;;
5807;SDS011;2930;42.678;23.312;2023-03-14T13:12:56;0.70;;;0.70;;
5807;SDS011;2930;42.678;23.312;2023-03-14T13:15:46;0.70;;;0.70;;
5807;SDS011;2930;42.678;23.312;2023-03-14T13:18:15;0.98;;;0.70;;
5807;SDS011;2930;42.678;23.312;2023-03-14T13:23:33;1.38;;;1.00;;
5807;SDS011;2930;42.678;23.312;2023-03-14T13:26:01;1.35;;;0.70;;
5807;SDS011;2930;42.678;23.312;2023-03-14T13:28:28;0.45;;;0.45;;
5807;SDS011;2930;42.678;23.312;2023-03-14T13:30:59;1.13;;;0.80;;
5807;SDS011;2930;42.678;23.312;2023-03-14T13:33:26;0.50;;;0.50;;
5807;SDS011;2930;42.678;23.312;2023-03-14T13:35:56;0.55;;;0.55;;
5807;SDS011;2930;42.678;23.312;2023-03-14T13:38:25;0.85;;;0.85;;
5807;SDS011;2930;42.678;23.312;2023-03-14T13:40:53;0.60;;;0.60;;
5807;SDS011;2930;42.678;23.312;2023-03-14T13:43:30;5.15;;;0.80;;
5807;SDS011;2930;42.678;23.312;2023-03-14T13:48:30;0.60;;;0.60;;
5807;SDS011;2930;42.678;23.312;2023-03-14T13:53:29;0.60;;;0.60;;
5807;SDS011;2930;42.678;23.312;2023-03-14T13:55:55;0.70;;;0.70;;
5807;SDS011;2930;42.678;23.312;2023-03-14T13:58:26;0.50;;;0.50;;
5807;SDS011;2930;42.678;23.312;2023-03-14T14:00:54;0.63;;;0.50;;
5807;SDS011;2930;42.678;23.312;2023-03-14T14:03:24;2.60;;;0.40;;
5807;SDS011;2930;42.678;23.312;2023-03-14T14:05:50;0.60;;;0.60;;
5807;SDS011;2930;42.678;23.312;2023-03-14T14:08:16;0.77;;;0.77;;
5807;SDS011;2930;42.678;23.312;2023-03-14T14:10:42;0.70;;;0.70;;
5807;SDS011;2930;42.678;23.312;2023-03-14T14:13:08;0.60;;;0.60;;
5807;SDS011;2930;42.678;23.312;2023-03-14T14:15:43;0.80;;;0.80;;
5807;SDS011;2930;42.678;23.312;2023-03-14T14:18:18;0.63;;;0.63;;
5807;SDS011;2930;42.678;23.312;2023-03-14T14:20:48;0.93;;;0.73;;
5807;SDS011;2930;42.678;23.312;2023-03-14T14:23:16;0.45;;;0.45;;
5807;SDS011;2930;42.678;23.312;2023-03-14T14:25:54;1.85;;;0.70;;
5807;SDS011;2930;42.678;23.312;2023-03-14T14:28:35;0.65;;;0.65;;
5807;SDS011;2930;42.678;23.312;2023-03-14T14:39:11;0.70;;;0.70;;
5807;SDS011;2930;42.678;23.312;2023-03-14T14:41:47;0.50;;;0.50;;
5807;SDS011;2930;42.678;23.312;2023-03-14T14:44:16;0.68;;;0.60;;
5807;SDS011;2930;42.678;23.312;2023-03-14T14:46:45;1.15;;;0.70;;
5807;SDS011;2930;42.678;23.312;2023-03-14T14:49:15;0.60;;;0.60;;
5807;SDS011;2930;42.678;23.312;2023-03-14T14:51:50;0.80;;;0.60;;
5807;SDS011;2930;42.678;23.312;2023-03-14T14:54:17;0.50;;;0.50;;
5807;SDS011;2930;42.678;23.312;2023-03-14T14:56:51;0.50;;;0.50;;
5807;SDS011;2930;42.678;23.312;2023-03-14T14:59:25;0.40;;;0.40;;
5807;SDS011;2930;42.678;23.312;2023-03-14T15:01:58;0.50;;;0.50;;
5807;SDS011;2930;42.678;23.312;2023-03-14T15:04:27;2.83;;;0.30;;
5807;SDS011;2930;42.678;23.312;2023-03-14T15:06:55;0.73;;;0.73;;
5807;SDS011;2930;42.678;23.312;2023-03-14T15:09:21;0.75;;;0.73;;
5807;SDS011;2930;42.678;23.312;2023-03-14T15:11:47;2.05;;;0.60;;
5807;SDS011;2930;42.678;23.312;2023-03-14T15:14:14;1.15;;;0.70;;
5807;SDS011;2930;42.678;23.312;2023-03-14T15:16:40;0.60;;;0.60;;
5807;SDS011;2930;42.678;23.312;2023-03-14T15:19:19;1.67;;;0.60;;
5807;SDS011;2930;42.678;23.312;2023-03-14T15:21:46;0.47;;;0.47;;
5807;SDS011;2930;42.678;23.312;2023-03-14T15:24:12;0.50;;;0.50;;
5807;SDS011;2930;42.678;23.312;2023-03-14T15:26:38;0.63;;;0.43;;
5807;SDS011;2930;42.678;23.312;2023-03-14T15:29:03;0.63;;;0.63;;
5807;SDS011;2930;42.678;23.312;2023-03-14T15:31:33;0.85;;;0.85;;
5807;SDS011;2930;42.678;23.312;2023-03-14T15:33:59;0.90;;;0.60;;
5807;SDS011;2930;42.678;23.312;2023-03-14T15:36:29;0.60;;;0.60;;
5807;SDS011;2930;42.678;23.312;2023-03-14T15:38:56;0.55;;;0.55;;
5807;SDS011;2930;42.678;23.312;2023-03-14T15:41:24;1.67;;;0.70;;
5807;SDS011;2930;42.678;23.312;2023-03-14T15:43:50;0.52;;;0.52;;
5807;SDS011;2930;42.678;23.312;2023-03-14T15:46:16;1.60;;;0.68;;
5807;SDS011;2930;42.678;23.312;2023-03-14T15:48:46;0.95;;;0.75;;
5807;SDS011;2930;42.678;23.312;2023-03-14T15:51:12;0.50;;;0.50;;
5807;SDS011;2930;42.678;23.312;2023-03-14T15:53:38;0.50;;;0.45;;
5807;SDS011;2930;42.678;23.312;2023-03-14T15:56:05;0.55;;;0.55;;
5807;SDS011;2930;42.678;23.312;2023-03-14T15:58:31;0.70;;;0.70;;
5807;SDS011;2930;42.678;23.312;2023-03-14T16:01:01;0.50;;;0.50;;
5807;SDS011;2930;42.678;23.312;2023-03-14T16:03:27;0.57;;;0.57;;
5807;SDS011;2930;42.678;23.312;2023-03-14T16:05:54;0.60;;;0.60;;
5807;SDS011;2930;42.678;23.312;2023-03-14T16:08:20;1.20;;;0.80;;
5807;SDS011;2930;42.678;23.312;2023-03-14T16:10:47;0.80;;;0.80;;
5807;SDS011;2930;42.678;23.312;2023-03-14T16:13:13;0.60;;;0.60;;
5807;SDS011;2930;42.678;23.312;2023-03-14T16:15:39;0.70;;;0.70;;
5807;SDS011;2930;42.678;23.312;2023-03-14T16:18:04;0.80;;;0.80;;
5807;SDS011;2930;42.678;23.312;2023-03-14T16:20:30;0.90;;;0.90;;
5807;SDS011;2930;42.678;23.312;2023-03-14T16:22:56;0.65;;;0.65;;
5807;SDS011;2930;42.678;23.312;2023-03-14T16:25:21;0.75;;;0.75;;
5807;SDS011;2930;42.678;23.312;2023-03-14T16:27:47;2.83;;;1.00;;
5807;SDS011;2930;42.678;23.312;2023-03-14T16:30:13;0.82;;;0.82;;
5807;SDS011;2930;42.678;23.312;2023-03-14T16:32:38;2.67;;;0.65;;